sensor_id;sensor_type;location;lat;lon;timestamp;P1;durP1;ratioP1;P2;durP2;ratioP2
26920;SDS011;14483;47.844;9.660;2022-10-16T00:00:07;5.03;;;0.60;;
26920;SDS011;14483;47.844;9.660;2022-10-16T00:02:34;3.83;;;0.50;;
26920;SDS011;14483;47.844;9.660;2022-10-16T00:05:00;3.30;;;0.70;;
26920;SDS011;14483;47.844;9.660;2022-10-16T00:07:27;1.27;;;0.50;;
26920;SDS011;14483;47.844;9.660;2022-10-16T00:09:55;1.10;;;0.50;;
26920;SDS011;14483;47.844;9.660;2022-10-16T00:12:21;2.78;;;0.80;;
26920;SDS011;14483;47.844;9.660;2022-10-16T00:14:47;2.92;;;0.70;;
26920;SDS011;14483;47.844;9.660;2022-10-16T00:17:14;5.70;;;0.50;;
26920;SDS011;14483;47.844;9.660;2022-10-16T00:19:40;5.75;;;0.90;;
26920;SDS011;14483;47.844;9.660;2022-10-16T00:22:06;6.63;;;0.88;;
26920;SDS011;14483;47.844;9.660;2022-10-16T00:24:33;1.25;;;0.60;;
26920;SDS011;14483;47.844;9.660;2022-10-16T00:27:01;1.92;;;0.68;;
26920;SDS011;14483;47.844;9.660;2022-10-16T00:29:27;3.47;;;1.17;;
26920;SDS011;14483;47.844;9.660;2022-10-16T00:31:53;2.95;;;1.08;;
26920;SDS011;14483;47.844;9.660;2022-10-16T00:34:20;1.33;;;0.77;;
26920;SDS011;14483;47.844;9.660;2022-10-16T00:36:46;3.90;;;0.88;;
26920;SDS011;14483;47.844;9.660;2022-10-16T00:39:12;2.88;;;1.13;;
26920;SDS011;14483;47.844;9.660;2022-10-16T00:41:39;5.40;;;0.98;;
26920;SDS011;14483;47.844;9.660;2022-10-16T00:46:48;2.08;;;0.82;;
26920;SDS011;14483;47.844;9.660;2022-10-16T00:49:16;3.15;;;0.98;;
26920;SDS011;14483;47.844;9.660;2022-10-16T00:51:45;2.38;;;0.98;;
26920;SDS011;14483;47.844;9.660;2022-10-16T00:54:13;2.33;;;0.85;;
26920;SDS011;14483;47.844;9.660;2022-10-16T00:56:40;3.80;;;0.93;;
26920;SDS011;14483;47.844;9.660;2022-10-16T00:59:08;4.18;;;0.90;;
26920;SDS011;14483;47.844;9.660;2022-10-16T01:01:36;2.30;;;0.70;;
26920;SDS011;14483;47.844;9.660;2022-10-16T01:04:04;3.13;;;0.93;;
26920;SDS011;14483;47.844;9.660;2022-10-16T01:06:31;3.75;;;0.85;;
26920;SDS011;14483;47.844;9.660;2022-10-16T01:09:03;2.67;;;0.80;;
26920;SDS011;14483;47.844;9.660;2022-10-16T01:11:33;4.68;;;1.05;;
26920;SDS011;14483;47.844;9.660;2022-10-16T01:14:02;5.05;;;1.10;;
26920;SDS011;14483;47.844;9.660;2022-10-16T01:16:31;2.35;;;1.27;;
26920;SDS011;14483;47.844;9.660;2022-10-16T01:19:02;2.67;;;1.33;;
26920;SDS011;14483;47.844;9.660;2022-10-16T01:21:34;1.95;;;1.35;;
26920;SDS011;14483;47.844;9.660;2022-10-16T01:24:03;5.00;;;1.20;;
26920;SDS011;14483;47.844;9.660;2022-10-16T01:26:36;3.33;;;1.42;;
26920;SDS011;14483;47.844;9.660;2022-10-16T01:29:05;4.80;;;1.50;;
26920;SDS011;14483;47.844;9.660;2022-10-16T01:31:34;6.70;;;1.60;;
26920;SDS011;14483;47.844;9.660;2022-10-16T01:34:02;3.05;;;1.20;;
26920;SDS011;14483;47.844;9.660;2022-10-16T01:36:31;2.00;;;0.90;;
26920;SDS011;14483;47.844;9.660;2022-10-16T01:39:01;4.57;;;1.23;;
26920;SDS011;14483;47.844;9.660;2022-10-16T01:41:28;6.40;;;1.77;;
26920;SDS011;14483;47.844;9.660;2022-10-16T01:43:56;5.13;;;1.08;;
26920;SDS011;14483;47.844;9.660;2022-10-16T01:46:27;3.22;;;1.40;;
26920;SDS011;14483;47.844;9.660;2022-10-16T01:48:54;4.00;;;1.58;;
26920;SDS011;14483;47.844;9.660;2022-10-16T01:51:21;5.10;;;1.45;;
26920;SDS011;14483;47.844;9.660;2022-10-16T01:53:48;5.25;;;1.20;;
26920;SDS011;14483;47.844;9.660;2022-10-16T01:56:15;3.58;;;1.10;;
26920;SDS011;14483;47.844;9.660;2022-10-16T01:58:44;2.10;;;1.05;;
26920;SDS011;14483;47.844;9.660;2022-10-16T02:01:12;2.35;;;0.90;;
26920;SDS011;14483;47.844;9.660;2022-10-16T02:03:42;4.93;;;0.90;;
26920;SDS011;14483;47.844;9.660;2022-10-16T02:06:08;2.97;;;0.90;;
26920;SDS011;14483;47.844;9.660;2022-10-16T02:08:35;4.00;;;0.98;;
26920;SDS011;14483;47.844;9.660;2022-10-16T02:11:02;3.17;;;0.70;;
26920;SDS011;14483;47.844;9.660;2022-10-16T02:13:29;3.45;;;0.93;;
26920;SDS011;14483;47.844;9.660;2022-10-16T02:15:57;5.97;;;1.00;;
26920;SDS011;14483;47.844;9.660;2022-10-16T02:18:24;5.65;;;0.80;;
26920;SDS011;14483;47.844;9.660;2022-10-16T02:20:56;1.88;;;0.85;;
26920;SDS011;14483;47.844;9.660;2022-10-16T02:23:24;8.82;;;1.10;;
26920;SDS011;14483;47.844;9.660;2022-10-16T02:25:53;2.83;;;1.00;;
26920;SDS011;14483;47.844;9.660;2022-10-16T02:28:22;4.43;;;1.20;;
26920;SDS011;14483;47.844;9.660;2022-10-16T02:30:51;2.90;;;1.23;;
26920;SDS011;14483;47.844;9.660;2022-10-16T02:33:19;2.72;;;1.20;;
26920;SDS011;14483;47.844;9.660;2022-10-16T02:35:46;3.10;;;1.10;;
26920;SDS011;14483;47.844;9.660;2022-10-16T02:38:15;3.63;;;1.20;;
26920;SDS011;14483;47.844;9.660;2022-10-16T02:40:42;3.20;;;1.20;;
26920;SDS011;14483;47.844;9.660;2022-10-16T02:43:08;2.78;;;1.48;;
26920;SDS011;14483;47.844;9.660;2022-10-16T02:45:35;4.00;;;1.02;;
26920;SDS011;14483;47.844;9.660;2022-10-16T02:48:02;3.45;;;1.20;;
26920;SDS011;14483;47.844;9.660;2022-10-16T02:50:28;2.88;;;1.10;;
26920;SDS011;14483;47.844;9.660;2022-10-16T02:52:54;3.58;;;0.90;;
26920;SDS011;14483;47.844;9.660;2022-10-16T02:55:22;3.10;;;0.98;;
26920;SDS011;14483;47.844;9.660;2022-10-16T02:57:48;2.95;;;1.30;;
26920;SDS011;14483;47.844;9.660;2022-10-16T03:00:15;1.40;;;0.85;;
26920;SDS011;14483;47.844;9.660;2022-10-16T03:02:42;1.50;;;0.90;;
26920;SDS011;14483;47.844;9.660;2022-10-16T03:05:08;5.68;;;1.00;;
26920;SDS011;14483;47.844;9.660;2022-10-16T03:07:35;2.92;;;1.10;;
26920;SDS011;14483;47.844;9.660;2022-10-16T03:10:01;2.08;;;0.80;;
26920;SDS011;14483;47.844;9.660;2022-10-16T03:12:29;4.18;;;0.82;;
26920;SDS011;14483;47.844;9.660;2022-10-16T03:14:56;1.20;;;0.63;;
26920;SDS011;14483;47.844;9.660;2022-10-16T03:17:22;1.98;;;0.80;;
26920;SDS011;14483;47.844;9.660;2022-10-16T03:19:49;4.53;;;0.80;;
26920;SDS011;14483;47.844;9.660;2022-10-16T03:22:15;3.38;;;1.17;;
26920;SDS011;14483;47.844;9.660;2022-10-16T03:24:41;2.47;;;0.98;;
26920;SDS011;14483;47.844;9.660;2022-10-16T03:27:08;1.25;;;0.75;;
26920;SDS011;14483;47.844;9.660;2022-10-16T03:29:35;3.95;;;1.02;;
26920;SDS011;14483;47.844;9.660;2022-10-16T03:32:02;1.92;;;0.90;;
26920;SDS011;14483;47.844;9.660;2022-10-16T03:34:28;1.33;;;0.90;;
26920;SDS011;14483;47.844;9.660;2022-10-16T03:36:54;2.60;;;0.95;;
26920;SDS011;14483;47.844;9.660;2022-10-16T03:39:21;3.67;;;0.80;;
26920;SDS011;14483;47.844;9.660;2022-10-16T03:41:47;6.85;;;0.82;;
26920;SDS011;14483;47.844;9.660;2022-10-16T03:44:13;6.10;;;0.68;;
26920;SDS011;14483;47.844;9.660;2022-10-16T03:46:41;1.40;;;0.82;;
26920;SDS011;14483;47.844;9.660;2022-10-16T03:49:08;2.00;;;0.90;;
26920;SDS011;14483;47.844;9.660;2022-10-16T03:51:34;2.75;;;1.10;;
26920;SDS011;14483;47.844;9.660;2022-10-16T03:54:00;2.75;;;1.27;;
26920;SDS011;14483;47.844;9.660;2022-10-16T03:56:27;1.65;;;0.70;;
26920;SDS011;14483;47.844;9.660;2022-10-16T03:58:53;7.55;;;0.95;;
26920;SDS011;14483;47.844;9.660;2022-10-16T04:01:19;3.17;;;0.93;;
26920;SDS011;14483;47.844;9.660;2022-10-16T04:03:47;2.60;;;1.10;;
26920;SDS011;14483;47.844;9.660;2022-10-16T04:06:13;3.00;;;1.00;;
26920;SDS011;14483;47.844;9.660;2022-10-16T04:08:41;3.25;;;1.30;;
26920;SDS011;14483;47.844;9.660;2022-10-16T04:11:08;4.15;;;1.27;;
26920;SDS011;14483;47.844;9.660;2022-10-16T04:13:34;5.88;;;0.70;;
26920;SDS011;14483;47.844;9.660;2022-10-16T04:16:01;5.60;;;1.10;;
26920;SDS011;14483;47.844;9.660;2022-10-16T04:18:27;2.47;;;0.80;;
26920;SDS011;14483;47.844;9.660;2022-10-16T04:20:55;4.35;;;1.00;;
26920;SDS011;14483;47.844;9.660;2022-10-16T04:23:21;6.30;;;1.25;;
26920;SDS011;14483;47.844;9.660;2022-10-16T04:25:48;4.60;;;0.88;;
26920;SDS011;14483;47.844;9.660;2022-10-16T04:28:15;3.15;;;0.88;;
26920;SDS011;14483;47.844;9.660;2022-10-16T04:30:41;3.25;;;1.10;;
26920;SDS011;14483;47.844;9.660;2022-10-16T04:33:08;2.38;;;1.00;;
26920;SDS011;14483;47.844;9.660;2022-10-16T04:35:35;1.02;;;0.70;;
26920;SDS011;14483;47.844;9.660;2022-10-16T04:38:02;7.10;;;1.48;;
26920;SDS011;14483;47.844;9.660;2022-10-16T04:40:29;4.07;;;1.67;;
26920;SDS011;14483;47.844;9.660;2022-10-16T04:42:57;2.47;;;1.00;;
26920;SDS011;14483;47.844;9.660;2022-10-16T04:45:24;6.90;;;1.65;;
26920;SDS011;14483;47.844;9.660;2022-10-16T04:47:50;7.75;;;2.10;;
26920;SDS011;14483;47.844;9.660;2022-10-16T04:50:16;4.53;;;2.45;;
26920;SDS011;14483;47.844;9.660;2022-10-16T04:52:43;4.97;;;2.05;;
26920;SDS011;14483;47.844;9.660;2022-10-16T04:55:11;7.03;;;1.00;;
26920;SDS011;14483;47.844;9.660;2022-10-16T04:57:38;3.00;;;1.00;;
26920;SDS011;14483;47.844;9.660;2022-10-16T05:00:04;1.75;;;0.80;;
26920;SDS011;14483;47.844;9.660;2022-10-16T05:02:31;3.58;;;0.70;;
26920;SDS011;14483;47.844;9.660;2022-10-16T05:04:57;2.55;;;0.85;;
26920;SDS011;14483;47.844;9.660;2022-10-16T05:07:24;9.52;;;0.75;;
26920;SDS011;14483;47.844;9.660;2022-10-16T05:09:50;6.60;;;1.00;;
26920;SDS011;14483;47.844;9.660;2022-10-16T05:12:18;2.75;;;1.05;;
26920;SDS011;14483;47.844;9.660;2022-10-16T05:14:44;1.77;;;1.10;;
26920;SDS011;14483;47.844;9.660;2022-10-16T05:17:10;4.68;;;1.08;;
26920;SDS011;14483;47.844;9.660;2022-10-16T05:19:37;3.53;;;1.20;;
26920;SDS011;14483;47.844;9.660;2022-10-16T05:22:03;3.45;;;1.67;;
26920;SDS011;14483;47.844;9.660;2022-10-16T05:24:30;6.88;;;2.60;;
26920;SDS011;14483;47.844;9.660;2022-10-16T05:26:56;14.63;;;5.97;;
26920;SDS011;14483;47.844;9.660;2022-10-16T05:29:24;12.25;;;3.70;;
26920;SDS011;14483;47.844;9.660;2022-10-16T05:31:51;10.73;;;4.10;;
26920;SDS011;14483;47.844;9.660;2022-10-16T05:34:18;10.02;;;3.35;;
26920;SDS011;14483;47.844;9.660;2022-10-16T05:36:44;4.60;;;2.60;;
26920;SDS011;14483;47.844;9.660;2022-10-16T05:39:11;9.07;;;2.85;;
26920;SDS011;14483;47.844;9.660;2022-10-16T05:41:37;5.68;;;3.25;;
26920;SDS011;14483;47.844;9.660;2022-10-16T05:44:04;6.13;;;2.58;;
26920;SDS011;14483;47.844;9.660;2022-10-16T05:46:32;8.23;;;2.83;;
26920;SDS011;14483;47.844;9.660;2022-10-16T05:48:58;18.63;;;4.25;;
26920;SDS011;14483;47.844;9.660;2022-10-16T05:51:25;13.27;;;5.63;;
26920;SDS011;14483;47.844;9.660;2022-10-16T05:53:51;10.85;;;4.80;;
26920;SDS011;14483;47.844;9.660;2022-10-16T05:56:18;9.32;;;4.15;;
26920;SDS011;14483;47.844;9.660;2022-10-16T05:58:44;14.13;;;4.95;;
26920;SDS011;14483;47.844;9.660;2022-10-16T06:01:12;19.08;;;6.25;;
26920;SDS011;14483;47.844;9.660;2022-10-16T06:03:40;14.23;;;5.20;;
26920;SDS011;14483;47.844;9.660;2022-10-16T06:06:07;8.20;;;1.65;;
26920;SDS011;14483;47.844;9.660;2022-10-16T06:08:33;4.15;;;0.90;;
26920;SDS011;14483;47.844;9.660;2022-10-16T06:11:00;6.50;;;1.52;;
26920;SDS011;14483;47.844;9.660;2022-10-16T06:13:27;4.47;;;0.80;;
26920;SDS011;14483;47.844;9.660;2022-10-16T06:15:53;2.88;;;0.90;;
26920;SDS011;14483;47.844;9.660;2022-10-16T06:18:19;2.10;;;0.90;;
26920;SDS011;14483;47.844;9.660;2022-10-16T06:20:47;2.47;;;1.23;;
26920;SDS011;14483;47.844;9.660;2022-10-16T06:23:13;4.40;;;0.95;;
26920;SDS011;14483;47.844;9.660;2022-10-16T06:25:40;3.78;;;1.25;;
26920;SDS011;14483;47.844;9.660;2022-10-16T06:28:06;4.55;;;1.15;;
26920;SDS011;14483;47.844;9.660;2022-10-16T06:30:32;9.13;;;1.02;;
26920;SDS011;14483;47.844;9.660;2022-10-16T06:32:59;1.92;;;0.90;;
26920;SDS011;14483;47.844;9.660;2022-10-16T06:35:25;3.92;;;0.90;;
26920;SDS011;14483;47.844;9.660;2022-10-16T06:37:53;1.77;;;0.73;;
26920;SDS011;14483;47.844;9.660;2022-10-16T06:40:19;6.53;;;1.10;;
26920;SDS011;14483;47.844;9.660;2022-10-16T06:42:46;3.95;;;1.20;;
26920;SDS011;14483;47.844;9.660;2022-10-16T06:45:12;1.63;;;1.05;;
26920;SDS011;14483;47.844;9.660;2022-10-16T06:47:39;3.22;;;1.15;;
26920;SDS011;14483;47.844;9.660;2022-10-16T06:50:05;2.63;;;1.40;;
26920;SDS011;14483;47.844;9.660;2022-10-16T06:52:32;3.80;;;1.00;;
26920;SDS011;14483;47.844;9.660;2022-10-16T06:55:00;2.85;;;0.80;;
26920;SDS011;14483;47.844;9.660;2022-10-16T06:57:27;3.67;;;1.00;;
26920;SDS011;14483;47.844;9.660;2022-10-16T06:59:54;3.38;;;1.10;;
26920;SDS011;14483;47.844;9.660;2022-10-16T07:02:20;4.00;;;1.40;;
26920;SDS011;14483;47.844;9.660;2022-10-16T07:04:46;6.22;;;1.67;;
26920;SDS011;14483;47.844;9.660;2022-10-16T07:07:13;6.15;;;1.10;;
26920;SDS011;14483;47.844;9.660;2022-10-16T07:09:39;2.25;;;1.23;;
26920;SDS011;14483;47.844;9.660;2022-10-16T07:12:07;3.85;;;1.00;;
26920;SDS011;14483;47.844;9.660;2022-10-16T07:14:34;4.82;;;1.20;;
26920;SDS011;14483;47.844;9.660;2022-10-16T07:17:00;4.30;;;1.38;;
26920;SDS011;14483;47.844;9.660;2022-10-16T07:19:26;4.65;;;1.20;;
26920;SDS011;14483;47.844;9.660;2022-10-16T07:21:53;6.53;;;3.47;;
26920;SDS011;14483;47.844;9.660;2022-10-16T07:24:19;9.32;;;3.40;;
26920;SDS011;14483;47.844;9.660;2022-10-16T07:26:46;5.45;;;3.40;;
26920;SDS011;14483;47.844;9.660;2022-10-16T07:29:14;7.35;;;3.25;;
26920;SDS011;14483;47.844;9.660;2022-10-16T07:31:41;10.90;;;2.70;;
26920;SDS011;14483;47.844;9.660;2022-10-16T07:34:07;7.95;;;2.22;;
26920;SDS011;14483;47.844;9.660;2022-10-16T07:36:34;7.32;;;2.35;;
26920;SDS011;14483;47.844;9.660;2022-10-16T07:39:00;6.05;;;1.90;;
26920;SDS011;14483;47.844;9.660;2022-10-16T07:41:27;6.93;;;2.15;;
26920;SDS011;14483;47.844;9.660;2022-10-16T07:43:53;9.35;;;3.42;;
26920;SDS011;14483;47.844;9.660;2022-10-16T07:46:22;5.78;;;2.45;;
26920;SDS011;14483;47.844;9.660;2022-10-16T07:48:49;8.30;;;3.15;;
26920;SDS011;14483;47.844;9.660;2022-10-16T07:51:16;7.88;;;2.55;;
26920;SDS011;14483;47.844;9.660;2022-10-16T07:53:42;4.90;;;2.95;;
26920;SDS011;14483;47.844;9.660;2022-10-16T07:56:09;4.90;;;2.90;;
26920;SDS011;14483;47.844;9.660;2022-10-16T07:58:36;3.53;;;2.35;;
26920;SDS011;14483;47.844;9.660;2022-10-16T08:01:03;4.78;;;2.55;;
26920;SDS011;14483;47.844;9.660;2022-10-16T08:03:31;2.17;;;1.40;;
26920;SDS011;14483;47.844;9.660;2022-10-16T08:05:57;2.05;;;1.40;;
26920;SDS011;14483;47.844;9.660;2022-10-16T08:08:24;3.03;;;1.60;;
26920;SDS011;14483;47.844;9.660;2022-10-16T08:10:50;3.63;;;1.42;;
26920;SDS011;14483;47.844;9.660;2022-10-16T08:13:17;3.55;;;1.27;;
26920;SDS011;14483;47.844;9.660;2022-10-16T08:15:43;4.32;;;1.00;;
26920;SDS011;14483;47.844;9.660;2022-10-16T08:18:10;2.03;;;1.00;;
26920;SDS011;14483;47.844;9.660;2022-10-16T08:20:39;2.22;;;1.23;;
26920;SDS011;14483;47.844;9.660;2022-10-16T08:23:05;3.92;;;1.33;;
26920;SDS011;14483;47.844;9.660;2022-10-16T08:25:33;2.08;;;1.17;;
26920;SDS011;14483;47.844;9.660;2022-10-16T08:28:00;2.67;;;1.13;;
26920;SDS011;14483;47.844;9.660;2022-10-16T08:30:26;2.67;;;1.30;;
26920;SDS011;14483;47.844;9.660;2022-10-16T08:32:52;3.50;;;1.45;;
26920;SDS011;14483;47.844;9.660;2022-10-16T08:35:19;2.47;;;1.40;;
26920;SDS011;14483;47.844;9.660;2022-10-16T08:37:46;2.53;;;0.98;;
26920;SDS011;14483;47.844;9.660;2022-10-16T08:40:16;4.22;;;1.30;;
26920;SDS011;14483;47.844;9.660;2022-10-16T08:42:47;4.10;;;1.23;;
26920;SDS011;14483;47.844;9.660;2022-10-16T08:45:27;1.75;;;1.20;;
26920;SDS011;14483;47.844;9.660;2022-10-16T08:48:00;3.15;;;1.20;;
26920;SDS011;14483;47.844;9.660;2022-10-16T08:50:30;7.50;;;1.33;;
26920;SDS011;14483;47.844;9.660;2022-10-16T08:52:59;2.05;;;1.20;;
26920;SDS011;14483;47.844;9.660;2022-10-16T08:55:30;4.20;;;1.20;;
26920;SDS011;14483;47.844;9.660;2022-10-16T08:57:58;2.72;;;1.10;;
26920;SDS011;14483;47.844;9.660;2022-10-16T09:00:24;2.47;;;1.30;;
26920;SDS011;14483;47.844;9.660;2022-10-16T09:02:52;7.55;;;1.40;;
26920;SDS011;14483;47.844;9.660;2022-10-16T09:05:22;2.30;;;1.30;;
26920;SDS011;14483;47.844;9.660;2022-10-16T09:07:54;2.10;;;1.25;;
26920;SDS011;14483;47.844;9.660;2022-10-16T09:10:29;1.77;;;1.05;;
26920;SDS011;14483;47.844;9.660;2022-10-16T09:13:01;2.72;;;1.38;;
26920;SDS011;14483;47.844;9.660;2022-10-16T09:15:31;2.72;;;1.15;;
26920;SDS011;14483;47.844;9.660;2022-10-16T09:18:00;4.70;;;1.25;;
26920;SDS011;14483;47.844;9.660;2022-10-16T09:20:30;5.22;;;1.30;;
26920;SDS011;14483;47.844;9.660;2022-10-16T09:23:00;3.33;;;1.48;;
26920;SDS011;14483;47.844;9.660;2022-10-16T09:25:35;2.72;;;1.08;;
26920;SDS011;14483;47.844;9.660;2022-10-16T09:28:03;4.55;;;1.10;;
26920;SDS011;14483;47.844;9.660;2022-10-16T09:30:29;4.72;;;1.10;;
26920;SDS011;14483;47.844;9.660;2022-10-16T09:32:57;3.72;;;1.20;;
26920;SDS011;14483;47.844;9.660;2022-10-16T09:35:25;1.55;;;1.10;;
26920;SDS011;14483;47.844;9.660;2022-10-16T09:37:53;2.50;;;1.00;;
26920;SDS011;14483;47.844;9.660;2022-10-16T09:40:24;2.10;;;0.93;;
26920;SDS011;14483;47.844;9.660;2022-10-16T09:42:52;4.82;;;1.02;;
26920;SDS011;14483;47.844;9.660;2022-10-16T09:45:21;3.05;;;1.05;;
26920;SDS011;14483;47.844;9.660;2022-10-16T09:47:48;4.32;;;1.00;;
26920;SDS011;14483;47.844;9.660;2022-10-16T09:50:20;4.20;;;1.13;;
26920;SDS011;14483;47.844;9.660;2022-10-16T09:52:47;6.20;;;0.95;;
26920;SDS011;14483;47.844;9.660;2022-10-16T09:55:15;2.80;;;1.23;;
26920;SDS011;14483;47.844;9.660;2022-10-16T09:57:48;3.65;;;0.90;;
26920;SDS011;14483;47.844;9.660;2022-10-16T10:00:17;1.80;;;0.90;;
26920;SDS011;14483;47.844;9.660;2022-10-16T10:02:43;1.52;;;0.70;;
26920;SDS011;14483;47.844;9.660;2022-10-16T10:05:17;8.15;;;1.02;;
26920;SDS011;14483;47.844;9.660;2022-10-16T10:07:44;2.70;;;1.30;;
26920;SDS011;14483;47.844;9.660;2022-10-16T10:10:18;5.35;;;1.23;;
26920;SDS011;14483;47.844;9.660;2022-10-16T10:12:45;6.50;;;1.30;;
26920;SDS011;14483;47.844;9.660;2022-10-16T10:15:12;4.45;;;1.30;;
26920;SDS011;14483;47.844;9.660;2022-10-16T10:17:46;2.50;;;1.30;;
26920;SDS011;14483;47.844;9.660;2022-10-16T10:20:15;3.05;;;1.20;;
26920;SDS011;14483;47.844;9.660;2022-10-16T10:22:47;2.15;;;0.80;;
26920;SDS011;14483;47.844;9.660;2022-10-16T10:25:22;3.90;;;1.42;;
26920;SDS011;14483;47.844;9.660;2022-10-16T10:27:59;1.67;;;0.98;;
26920;SDS011;14483;47.844;9.660;2022-10-16T10:30:29;2.42;;;1.20;;
26920;SDS011;14483;47.844;9.660;2022-10-16T10:33:03;2.50;;;1.52;;
26920;SDS011;14483;47.844;9.660;2022-10-16T10:35:33;2.60;;;1.00;;
26920;SDS011;14483;47.844;9.660;2022-10-16T10:38:02;3.28;;;1.08;;
26920;SDS011;14483;47.844;9.660;2022-10-16T10:40:36;1.42;;;0.80;;
26920;SDS011;14483;47.844;9.660;2022-10-16T10:43:04;3.22;;;0.82;;
26920;SDS011;14483;47.844;9.660;2022-10-16T10:45:36;3.28;;;0.70;;
26920;SDS011;14483;47.844;9.660;2022-10-16T10:48:14;2.88;;;1.00;;
26920;SDS011;14483;47.844;9.660;2022-10-16T10:50:45;3.80;;;0.88;;
26920;SDS011;14483;47.844;9.660;2022-10-16T10:53:18;2.78;;;0.90;;
26920;SDS011;14483;47.844;9.660;2022-10-16T10:55:46;4.97;;;1.00;;
26920;SDS011;14483;47.844;9.660;2022-10-16T10:58:29;1.60;;;1.00;;
26920;SDS011;14483;47.844;9.660;2022-10-16T11:01:01;1.85;;;0.70;;
26920;SDS011;14483;47.844;9.660;2022-10-16T11:03:42;1.30;;;0.60;;
26920;SDS011;14483;47.844;9.660;2022-10-16T11:06:14;2.63;;;0.70;;
26920;SDS011;14483;47.844;9.660;2022-10-16T11:08:43;2.17;;;0.73;;
26920;SDS011;14483;47.844;9.660;2022-10-16T11:11:13;1.45;;;0.77;;
26920;SDS011;14483;47.844;9.660;2022-10-16T11:13:42;2.78;;;1.05;;
26920;SDS011;14483;47.844;9.660;2022-10-16T11:16:13;2.22;;;0.70;;
26920;SDS011;14483;47.844;9.660;2022-10-16T11:18:44;1.52;;;0.60;;
26920;SDS011;14483;47.844;9.660;2022-10-16T11:21:13;1.08;;;0.65;;
26920;SDS011;14483;47.844;9.660;2022-10-16T11:23:41;0.65;;;0.40;;
26920;SDS011;14483;47.844;9.660;2022-10-16T11:26:10;1.58;;;0.50;;
26920;SDS011;14483;47.844;9.660;2022-10-16T11:28:39;3.33;;;1.60;;
26920;SDS011;14483;47.844;9.660;2022-10-16T11:31:08;2.65;;;0.50;;
26920;SDS011;14483;47.844;9.660;2022-10-16T11:33:37;0.90;;;0.60;;
26920;SDS011;14483;47.844;9.660;2022-10-16T11:36:08;2.90;;;0.80;;
26920;SDS011;14483;47.844;9.660;2022-10-16T11:38:38;3.67;;;0.57;;
26920;SDS011;14483;47.844;9.660;2022-10-16T11:41:08;1.77;;;0.57;;
26920;SDS011;14483;47.844;9.660;2022-10-16T11:43:37;4.53;;;0.60;;
26920;SDS011;14483;47.844;9.660;2022-10-16T11:46:05;0.80;;;0.55;;
26920;SDS011;14483;47.844;9.660;2022-10-16T11:48:35;1.00;;;0.60;;
26920;SDS011;14483;47.844;9.660;2022-10-16T11:51:05;2.00;;;0.60;;
26920;SDS011;14483;47.844;9.660;2022-10-16T11:53:37;4.65;;;0.80;;
26920;SDS011;14483;47.844;9.660;2022-10-16T11:56:05;2.72;;;0.70;;
26920;SDS011;14483;47.844;9.660;2022-10-16T11:58:32;2.53;;;0.63;;
26920;SDS011;14483;47.844;9.660;2022-10-16T12:01:01;2.58;;;0.80;;
26920;SDS011;14483;47.844;9.660;2022-10-16T12:03:29;1.00;;;0.50;;
26920;SDS011;14483;47.844;9.660;2022-10-16T12:06:12;1.33;;;0.50;;
26920;SDS011;14483;47.844;9.660;2022-10-16T12:08:41;1.57;;;0.50;;
26920;SDS011;14483;47.844;9.660;2022-10-16T12:11:19;2.60;;;0.60;;
26920;SDS011;14483;47.844;9.660;2022-10-16T12:13:46;1.63;;;0.40;;
26920;SDS011;14483;47.844;9.660;2022-10-16T12:16:20;0.65;;;0.30;;
26920;SDS011;14483;47.844;9.660;2022-10-16T12:18:47;2.08;;;0.60;;
26920;SDS011;14483;47.844;9.660;2022-10-16T12:21:14;0.68;;;0.40;;
26920;SDS011;14483;47.844;9.660;2022-10-16T12:23:47;1.98;;;0.60;;
26920;SDS011;14483;47.844;9.660;2022-10-16T12:26:14;1.08;;;0.68;;
26920;SDS011;14483;47.844;9.660;2022-10-16T12:28:49;3.45;;;0.63;;
26920;SDS011;14483;47.844;9.660;2022-10-16T12:31:16;1.85;;;0.50;;
26920;SDS011;14483;47.844;9.660;2022-10-16T12:33:51;2.25;;;0.60;;
26920;SDS011;14483;47.844;9.660;2022-10-16T12:36:26;0.85;;;0.32;;
26920;SDS011;14483;47.844;9.660;2022-10-16T12:38:54;2.95;;;0.65;;
26920;SDS011;14483;47.844;9.660;2022-10-16T12:41:24;0.95;;;0.40;;
26920;SDS011;14483;47.844;9.660;2022-10-16T12:43:51;0.88;;;0.50;;
26920;SDS011;14483;47.844;9.660;2022-10-16T12:46:33;1.55;;;0.50;;
26920;SDS011;14483;47.844;9.660;2022-10-16T12:49:17;0.80;;;0.50;;
26920;SDS011;14483;47.844;9.660;2022-10-16T12:51:46;2.28;;;0.50;;
26920;SDS011;14483;47.844;9.660;2022-10-16T12:54:14;2.22;;;0.70;;
26920;SDS011;14483;47.844;9.660;2022-10-16T12:56:42;2.83;;;0.70;;
26920;SDS011;14483;47.844;9.660;2022-10-16T12:59:16;0.63;;;0.47;;
26920;SDS011;14483;47.844;9.660;2022-10-16T13:01:50;1.38;;;0.50;;
26920;SDS011;14483;47.844;9.660;2022-10-16T13:07:09;0.98;;;0.50;;
26920;SDS011;14483;47.844;9.660;2022-10-16T13:09:42;0.75;;;0.43;;
26920;SDS011;14483;47.844;9.660;2022-10-16T13:12:16;1.98;;;0.47;;
26920;SDS011;14483;47.844;9.660;2022-10-16T13:17:45;1.50;;;0.40;;
26920;SDS011;14483;47.844;9.660;2022-10-16T13:20:17;2.10;;;0.40;;
26920;SDS011;14483;47.844;9.660;2022-10-16T13:22:47;0.60;;;0.32;;
26920;SDS011;14483;47.844;9.660;2022-10-16T13:25:20;1.23;;;0.82;;
26920;SDS011;14483;47.844;9.660;2022-10-16T13:27:50;2.83;;;0.50;;
26920;SDS011;14483;47.844;9.660;2022-10-16T13:30:19;0.75;;;0.40;;
26920;SDS011;14483;47.844;9.660;2022-10-16T13:32:46;0.45;;;0.30;;
26920;SDS011;14483;47.844;9.660;2022-10-16T13:35:23;2.65;;;0.50;;
26920;SDS011;14483;47.844;9.660;2022-10-16T13:37:49;2.55;;;0.40;;
26920;SDS011;14483;47.844;9.660;2022-10-16T13:40:21;4.65;;;0.50;;
26920;SDS011;14483;47.844;9.660;2022-10-16T13:42:48;1.67;;;0.32;;
26920;SDS011;14483;47.844;9.660;2022-10-16T13:45:18;1.15;;;0.35;;
26920;SDS011;14483;47.844;9.660;2022-10-16T13:47:45;1.40;;;0.63;;
26920;SDS011;14483;47.844;9.660;2022-10-16T13:50:12;2.22;;;0.40;;
26920;SDS011;14483;47.844;9.660;2022-10-16T13:52:39;3.35;;;0.45;;
26920;SDS011;14483;47.844;9.660;2022-10-16T13:55:09;1.13;;;0.52;;
26920;SDS011;14483;47.844;9.660;2022-10-16T13:57:37;0.45;;;0.30;;
26920;SDS011;14483;47.844;9.660;2022-10-16T14:00:20;2.03;;;0.38;;
26920;SDS011;14483;47.844;9.660;2022-10-16T14:05:13;0.98;;;0.40;;
26920;SDS011;14483;47.844;9.660;2022-10-16T14:07:40;1.85;;;0.50;;
26920;SDS011;14483;47.844;9.660;2022-10-16T14:10:07;2.00;;;0.60;;
26920;SDS011;14483;47.844;9.660;2022-10-16T14:12:45;1.38;;;0.40;;
26920;SDS011;14483;47.844;9.660;2022-10-16T14:15:19;1.42;;;0.55;;
26920;SDS011;14483;47.844;9.660;2022-10-16T14:17:47;1.63;;;0.50;;
26920;SDS011;14483;47.844;9.660;2022-10-16T14:20:14;0.35;;;0.30;;
26920;SDS011;14483;47.844;9.660;2022-10-16T14:22:41;1.35;;;0.40;;
26920;SDS011;14483;47.844;9.660;2022-10-16T14:25:20;1.20;;;0.40;;
26920;SDS011;14483;47.844;9.660;2022-10-16T14:27:57;2.10;;;0.50;;
26920;SDS011;14483;47.844;9.660;2022-10-16T14:30:24;2.45;;;0.40;;
26920;SDS011;14483;47.844;9.660;2022-10-16T14:32:55;3.22;;;0.50;;
26920;SDS011;14483;47.844;9.660;2022-10-16T14:35:22;0.50;;;0.30;;
26920;SDS011;14483;47.844;9.660;2022-10-16T14:37:51;1.80;;;0.32;;
26920;SDS011;14483;47.844;9.660;2022-10-16T14:40:17;0.70;;;0.50;;
26920;SDS011;14483;47.844;9.660;2022-10-16T14:42:44;3.20;;;0.40;;
26920;SDS011;14483;47.844;9.660;2022-10-16T14:45:13;2.08;;;0.73;;
26920;SDS011;14483;47.844;9.660;2022-10-16T14:47:46;1.08;;;0.47;;
26920;SDS011;14483;47.844;9.660;2022-10-16T14:50:13;0.90;;;0.60;;
26920;SDS011;14483;47.844;9.660;2022-10-16T14:52:40;1.30;;;0.30;;
26920;SDS011;14483;47.844;9.660;2022-10-16T14:55:08;1.00;;;0.40;;
26920;SDS011;14483;47.844;9.660;2022-10-16T14:57:35;1.70;;;0.60;;
26920;SDS011;14483;47.844;9.660;2022-10-16T15:00:03;1.25;;;0.50;;
26920;SDS011;14483;47.844;9.660;2022-10-16T15:02:32;4.53;;;0.50;;
26920;SDS011;14483;47.844;9.660;2022-10-16T15:04:59;1.42;;;0.50;;